Time;durP1;ratioP1;P1;durP2;ratioP2;P2;SDS_P1;SDS_P2;PMS_P1;PMS_P2;Temp;Humidity;BMP_temperature;BMP_pressure;BME280_temperature;BME280_humidity;BME280_pressure;Samples;Min_cycle;Max_cycle;Signal;HPM_P1;HPM_P2
2022/06/09 00:00:46;;;;;;;3.08;1.77;;;21.30;99.90;;;;;;5105559;27;45349;-75
2022/06/09 00:03:17;;;;;;;3.53;1.98;;;21.30;99.90;;;;;;5100968;27;45271;-75
2022/06/09 00:05:44;;;;;;;2.85;1.73;;;21.30;99.90;;;;;;5097127;27;47037;-75
2022/06/09 00:08:12;;;;;;;3.35;1.50;;;21.30;99.90;;;;;;5100916;27;45526;-75
2022/06/09 00:10:46;;;;;;;3.10;1.65;;;21.30;99.90;;;;;;5102029;27;45876;-75
2022/06/09 00:13:13;;;;;;;2.30;1.63;;;21.30;99.90;;;;;;5099698;27;45317;-75
2022/06/09 00:15:40;;;;;;;2.10;1.60;;;21.30;99.90;;;;;;5099842;27;46578;-75
2022/06/09 00:18:07;;;;;;;4.40;1.67;;;21.30;99.90;;;;;;5103111;27;45251;-75
2022/06/09 00:20:33;;;;;;;2.67;1.50;;;21.30;99.90;;;;;;5095501;27;45334;-75
2022/06/09 00:23:00;;;;;;;2.70;1.40;;;21.30;99.90;;;;;;5105968;27;45520;-75
2022/06/09 00:25:27;;;;;;;2.38;1.70;;;21.20;99.90;;;;;;5105451;27;48210;-75
2022/06/09 00:27:55;;;;;;;2.83;1.40;;;21.20;99.90;;;;;;5103549;27;45466;-75
2022/06/09 00:30:22;;;;;;;2.35;1.45;;;21.20;99.90;;;;;;5099634;27;45513;-75
2022/06/09 00:32:49;;;;;;;1.83;1.20;;;21.20;99.90;;;;;;5098951;27;45444;-75
2022/06/09 00:35:15;;;;;;;2.17;1.27;;;21.30;99.90;;;;;;5101292;27;45485;-75
2022/06/09 00:37:43;;;;;;;3.33;1.75;;;21.30;99.90;;;;;;5096434;27;45259;-75
2022/06/09 00:40:12;;;;;;;3.53;2.05;;;21.30;99.90;;;;;;5100557;27;45370;-76
2022/06/09 00:42:39;;;;;;;2.03;1.55;;;21.30;99.90;;;;;;5099004;27;45267;-75
2022/06/09 00:45:30;;;;;;;2.47;1.33;;;21.30;99.90;;;;;;5100451;27;46339;-75
2022/06/09 00:48:11;;;;;;;1.95;1.27;;;21.30;99.90;;;;;;5106526;27;45395;-75
2022/06/09 00:50:40;;;;;;;4.35;1.23;;;21.30;99.90;;;;;;5099949;27;45393;-75
2022/06/09 00:53:12;;;;;;;2.38;1.42;;;21.30;99.90;;;;;;5100065;27;45292;-75
2022/06/09 00:55:41;;;;;;;2.97;1.50;;;21.30;99.90;;;;;;5098402;27;47155;-75
2022/06/09 00:58:11;;;;;;;2.65;1.50;;;21.30;99.90;;;;;;5103907;27;45224;-75
2022/06/09 01:00:47;;;;;;;2.63;1.30;;;21.30;99.90;;;;;;5103918;27;45295;-75
2022/06/09 01:03:16;;;;;;;2.53;1.30;;;21.30;99.90;;;;;;5099353;27;45668;-75
2022/06/09 01:05:44;;;;;;;2.38;1.20;;;21.30;99.90;;;;;;5100143;27;45769;-75
2022/06/09 01:08:13;;;;;;;2.10;1.30;;;21.30;99.90;;;;;;5109173;27;45285;-75
2022/06/09 01:10:40;;;;;;;3.03;1.52;;;21.30;99.90;;;;;;5105121;27;45179;-75
2022/06/09 01:13:07;;;;;;;2.17;1.40;;;21.30;99.90;;;;;;5104266;27;45331;-75
2022/06/09 01:15:45;;;;;;;1.85;1.27;;;21.30;99.90;;;;;;5105886;27;46617;-75
2022/06/09 01:18:24;;;;;;;2.22;1.23;;;21.30;99.90;;;;;;5110112;27;45721;-75
2022/06/09 01:21:02;;;;;;;1.92;1.23;;;21.20;99.90;;;;;;5111554;27;45712;-75
2022/06/09 01:24:05;;;;;;;2.20;1.17;;;21.20;99.90;;;;;;5102577;27;45197;-75
2022/06/09 01:27:12;;;;;;;1.30;1.10;;;21.20;99.90;;;;;;5111223;27;46003;-75
2022/06/09 01:29:44;;;;;;;1.50;1.20;;;21.20;99.90;;;;;;5113272;27;45163;-75
2022/06/09 01:32:23;;;;;;;1.90;1.20;;;21.20;99.90;;;;;;5097248;27;45284;-75
2022/06/09 01:35:00;;;;;;;1.92;1.20;;;21.20;99.90;;;;;;5121192;27;45255;-75
2022/06/09 01:37:31;;;;;;;2.47;1.25;;;21.30;99.90;;;;;;5117483;27;45280;-75
2022/06/09 01:39:59;;;;;;;2.90;1.17;;;21.30;99.90;;;;;;5121105;27;45350;-75
2022/06/09 01:42:30;;;;;;;3.42;1.45;;;21.30;99.90;;;;;;5115822;27;45207;-75
2022/06/09 01:45:02;;;;;;;2.28;1.10;;;21.30;99.90;;;;;;5123700;27;45210;-75
2022/06/09 01:47:39;;;;;;;2.83;1.23;;;21.30;99.90;;;;;;5122710;27;46079;-75
2022/06/09 01:50:10;;;;;;;2.35;1.30;;;21.30;99.90;;;;;;5118713;27;45328;-75
2022/06/09 01:52:38;;;;;;;2.35;0.90;;;21.30;99.90;;;;;;5111266;27;45270;-75
2022/06/09 01:55:07;;;;;;;2.50;1.13;;;21.30;99.90;;;;;;5101902;27;45279;-75
2022/06/09 01:57:37;;;;;;;1.92;1.00;;;21.30;99.90;;;;;;5096604;27;45241;-74
2022/06/09 02:00:08;;;;;;;1.23;0.98;;;21.30;99.90;;;;;;5097432;27;46761;-75
2022/06/09 02:02:40;;;;;;;2.85;1.27;;;21.30;99.90;;;;;;5094613;27;45228;-75
2022/06/09 02:05:12;;;;;;;1.40;0.82;;;21.30;99.90;;;;;;5089939;27;45280;-75
2022/06/09 02:07:42;;;;;;;1.88;1.10;;;21.30;99.90;;;;;;5107923;27;46166;-75
2022/06/09 02:10:16;;;;;;;1.40;1.00;;;21.30;99.90;;;;;;5119524;27;45593;-75
2022/06/09 02:12:46;;;;;;;1.63;1.00;;;21.20;99.90;;;;;;5104580;27;45287;-75
2022/06/09 02:15:18;;;;;;;1.88;1.35;;;21.20;99.90;;;;;;5107685;27;45328;-75
2022/06/09 02:17:49;;;;;;;1.70;1.27;;;21.20;99.90;;;;;;5106750;27;45476;-75
2022/06/09 02:20:18;;;;;;;2.55;1.15;;;21.20;99.90;;;;;;5107177;27;45514;-75
2022/06/09 02:22:45;;;;;;;1.85;0.90;;;21.20;99.90;;;;;;5114400;27;45271;-75
2022/06/09 02:25:12;;;;;;;1.45;0.85;;;21.20;99.90;;;;;;5121448;27;45466;-75
2022/06/09 02:27:39;;;;;;;3.53;0.98;;;21.20;99.90;;;;;;5106393;27;47133;-75
2022/06/09 02:30:07;;;;;;;2.30;1.13;;;21.20;99.90;;;;;;5106036;27;45261;-75
2022/06/09 02:32:34;;;;;;;1.55;0.80;;;21.20;99.90;;;;;;5106077;27;45171;-75
2022/06/09 02:35:03;;;;;;;2.08;1.10;;;21.20;99.90;;;;;;5101080;27;45664;-75
2022/06/09 02:37:30;;;;;;;4.20;1.08;;;21.20;99.90;;;;;;5097452;27;45348;-75
2022/06/09 02:39:57;;;;;;;1.70;1.10;;;21.20;99.90;;;;;;5099936;27;45292;-75
2022/06/09 02:42:24;;;;;;;3.47;1.45;;;21.20;99.90;;;;;;5095826;27;45439;-75
2022/06/09 02:44:51;;;;;;;2.03;1.05;;;21.20;99.90;;;;;;5095655;27;45253;-75
2022/06/09 02:47:19;;;;;;;2.30;1.00;;;21.30;99.90;;;;;;5089755;27;46249;-75
2022/06/09 02:49:46;;;;;;;2.25;1.10;;;21.30;99.90;;;;;;5104969;27;45677;-75
2022/06/09 02:52:14;;;;;;;3.95;1.10;;;21.30;99.90;;;;;;5101378;27;45232;-75
2022/06/09 02:54:41;;;;;;;2.22;1.00;;;21.30;99.90;;;;;;5104764;27;45384;-75
2022/06/09 02:57:08;;;;;;;2.55;1.05;;;21.30;99.90;;;;;;5104577;27;47429;-75
2022/06/09 02:59:35;;;;;;;1.48;0.85;;;21.30;99.90;;;;;;5107546;27;45377;-75
2022/06/09 03:02:01;;;;;;;1.05;0.70;;;21.30;99.90;;;;;;5108408;27;45374;-75
2022/06/09 03:04:28;;;;;;;2.72;1.05;;;21.30;99.90;;;;;;5110964;27;45322;-75
2022/06/09 03:06:55;;;;;;;1.85;0.90;;;21.30;99.90;;;;;;5116608;27;46589;-75
2022/06/09 03:09:24;;;;;;;1.50;1.10;;;21.30;99.90;;;;;;5106999;27;45323;-75
2022/06/09 03:11:51;;;;;;;1.48;1.20;;;21.30;99.90;;;;;;5107938;27;45241;-75
2022/06/09 03:14:17;;;;;;;2.25;1.02;;;21.20;99.90;;;;;;5111230;27;45399;-75
2022/06/09 03:16:44;;;;;;;2.13;0.88;;;21.20;99.90;;;;;;5115748;27;45477;-75
2022/06/09 03:19:11;;;;;;;1.52;1.00;;;21.20;99.90;;;;;;5118439;27;45162;-75
2022/06/09 03:21:38;;;;;;;1.67;1.20;;;21.20;99.90;;;;;;5121139;27;45322;-75
2022/06/09 03:24:06;;;;;;;2.88;0.75;;;21.20;99.90;;;;;;5109124;27;45475;-76
2022/06/09 03:26:34;;;;;;;2.75;1.10;;;21.20;99.90;;;;;;5112188;27;46289;-76
2022/06/09 03:29:01;;;;;;;2.20;1.20;;;21.20;99.90;;;;;;5106920;27;45346;-76
2022/06/09 03:31:27;;;;;;;2.15;1.08;;;21.20;99.90;;;;;;5108566;27;45250;-75
2022/06/09 03:33:54;;;;;;;1.70;0.93;;;21.20;99.90;;;;;;5106139;27;45479;-75
2022/06/09 03:36:21;;;;;;;1.35;0.90;;;21.20;99.90;;;;;;5105617;27;46165;-76
2022/06/09 03:38:47;;;;;;;2.45;0.90;;;21.20;99.90;;;;;;5109940;27;45537;-76
2022/06/09 03:41:14;;;;;;;2.97;1.30;;;21.20;99.90;;;;;;5104653;27;45338;-75
2022/06/09 03:43:42;;;;;;;2.17;1.20;;;21.20;99.90;;;;;;5109746;27;46336;-75
2022/06/09 03:46:12;;;;;;;2.33;1.10;;;21.20;99.90;;;;;;5106148;27;47037;-75
2022/06/09 03:48:38;;;;;;;2.92;1.17;;;21.20;99.90;;;;;;5108675;27;45390;-75
2022/06/09 03:51:05;;;;;;;2.28;0.95;;;21.20;99.90;;;;;;5116051;27;45262;-75
2022/06/09 03:53:32;;;;;;;2.03;1.10;;;21.20;99.90;;;;;;5109104;27;46316;-76
2022/06/09 03:55:59;;;;;;;3.85;1.35;;;21.20;99.90;;;;;;5108882;27;46524;-75
2022/06/09 03:58:26;;;;;;;2.28;1.00;;;21.30;99.90;;;;;;5109339;27;47374;-76
2022/06/09 04:00:55;;;;;;;3.38;1.45;;;21.30;99.90;;;;;;5107103;27;45240;-76
2022/06/09 04:03:21;;;;;;;2.50;1.20;;;21.30;99.90;;;;;;5108063;27;46727;-75
2022/06/09 04:05:48;;;;;;;1.88;0.98;;;21.30;99.90;;;;;;5107405;27;47031;-75
2022/06/09 04:08:15;;;;;;;2.05;0.88;;;21.30;99.90;;;;;;5107366;27;45547;-75
2022/06/09 04:10:42;;;;;;;1.25;0.82;;;21.30;99.90;;;;;;5106010;27;45328;-75
2022/06/09 04:13:09;;;;;;;2.15;0.95;;;21.30;99.90;;;;;;5107653;27;45407;-75
2022/06/09 04:18:07;;;;;;;2.05;1.23;;;21.30;99.90;;;;;;5055756;28;45464;-75
2022/06/09 04:20:34;;;;;;;2.05;1.02;;;21.30;99.90;;;;;;5062919;28;45319;-75
2022/06/09 04:23:00;;;;;;;1.88;1.00;;;21.30;99.90;;;;;;5064329;28;46234;-75
2022/06/09 04:25:27;;;;;;;1.23;0.80;;;21.20;99.90;;;;;;5058063;28;45355;-75
2022/06/09 04:27:54;;;;;;;2.33;1.10;;;21.20;99.90;;;;;;5067476;28;45137;-75
2022/06/09 04:30:23;;;;;;;3.03;1.20;;;21.30;99.90;;;;;;5053578;28;45345;-75
2022/06/09 04:32:49;;;;;;;2.95;1.10;;;21.30;99.90;;;;;;5059719;28;45243;-75
2022/06/09 04:35:18;;;;;;;2.67;1.33;;;21.30;99.90;;;;;;5061316;28;46303;-75
2022/06/09 04:38:03;;;;;;;2.80;1.20;;;21.30;99.90;;;;;;5064294;28;45231;-75
2022/06/09 04:40:33;;;;;;;2.30;1.27;;;21.20;99.90;;;;;;5054732;28;46452;-75
2022/06/09 04:43:00;;;;;;;3.60;1.33;;;21.30;99.90;;;;;;5050258;28;45334;-75
2022/06/09 04:45:28;;;;;;;3.35;1.27;;;21.30;99.90;;;;;;5051308;28;46192;-75
2022/06/09 04:47:54;;;;;;;3.22;1.20;;;21.30;99.90;;;;;;5057446;28;45413;-75
2022/06/09 04:50:23;;;;;;;1.75;0.90;;;21.30;99.90;;;;;;5059860;28;45323;-75
2022/06/09 04:52:50;;;;;;;2.50;1.02;;;21.30;99.90;;;;;;5063533;28;45385;-75
2022/06/09 04:55:17;;;;;;;4.45;1.38;;;21.30;99.90;;;;;;5058254;28;46197;-75
2022/06/09 04:57:44;;;;;;;2.42;0.98;;;21.30;99.90;;;;;;5066237;28;45350;-75
2022/06/09 05:00:14;;;;;;;2.05;1.02;;;21.30;99.90;;;;;;5064170;28;45496;-75
2022/06/09 05:02:42;;;;;;;1.75;1.10;;;21.30;99.90;;;;;;5060387;28;45248;-75
2022/06/09 05:05:17;;;;;;;3.42;1.10;;;21.30;99.90;;;;;;5061130;28;45355;-74
2022/06/09 05:07:45;;;;;;;4.60;1.20;;;21.30;99.90;;;;;;5062404;28;45369;-74
2022/06/09 05:10:12;;;;;;;4.20;1.38;;;21.30;99.90;;;;;;5065486;28;45759;-74
2022/06/09 05:12:38;;;;;;;2.90;1.20;;;21.30;99.90;;;;;;5059536;28;45328;-73
2022/06/09 05:15:06;;;;;;;2.95;1.30;;;21.30;99.90;;;;;;5055679;28;46592;-73
2022/06/09 05:17:33;;;;;;;2.20;1.00;;;21.30;99.90;;;;;;5050664;28;45366;-73
2022/06/09 05:20:00;;;;;;;2.22;1.23;;;21.30;99.90;;;;;;5063258;28;45453;-73
2022/06/09 05:22:27;;;;;;;3.50;1.23;;;21.30;99.90;;;;;;5047884;28;45545;-73
2022/06/09 05:24:58;;;;;;;1.77;1.00;;;21.30;99.90;;;;;;5064632;28;47917;-74
2022/06/09 05:27:24;;;;;;;2.40;1.08;;;21.30;99.90;;;;;;5055171;28;45196;-74
2022/06/09 05:29:51;;;;;;;1.63;0.90;;;21.30;99.90;;;;;;5056477;28;45232;-74
2022/06/09 05:32:18;;;;;;;3.53;1.20;;;21.30;99.90;;;;;;5062720;28;45449;-74
2022/06/09 05:34:45;;;;;;;2.45;1.20;;;21.30;99.90;;;;;;5066124;28;46197;-74
2022/06/09 05:37:12;;;;;;;2.25;1.10;;;21.30;99.90;;;;;;5065760;28;45458;-74
2022/06/09 05:45:10;;;;;;;1.75;1.20;;;21.30;99.90;;;;;;5063818;28;45507;-74
2022/06/09 05:47:36;;;;;;;2.35;1.13;;;21.30;99.90;;;;;;5052691;28;45342;-74
2022/06/09 05:50:05;;;;;;;2.25;0.90;;;21.30;99.90;;;;;;5064955;28;45747;-74
2022/06/09 05:52:32;;;;;;;1.50;1.02;;;21.30;99.90;;;;;;5059797;28;45422;-75
2022/06/09 05:54:59;;;;;;;1.35;0.88;;;21.30;99.90;;;;;;5051584;28;46610;-75
2022/06/09 05:57:28;;;;;;;3.53;1.20;;;21.40;99.90;;;;;;5061801;28;45378;-75
2022/06/09 05:59:55;;;;;;;2.95;1.13;;;21.30;99.90;;;;;;5065573;28;45565;-75
2022/06/09 06:02:25;;;;;;;2.78;1.20;;;21.30;99.90;;;;;;5057895;28;45375;-74
2022/06/09 06:04:52;;;;;;;2.58;1.10;;;21.30;99.90;;;;;;5063325;28;45198;-73
2022/06/09 06:07:18;;;;;;;3.03;1.27;;;21.30;99.90;;;;;;5061315;28;45347;-73
2022/06/09 06:09:46;;;;;;;3.60;1.30;;;21.30;99.90;;;;;;5057791;28;45366;-73
2022/06/09 06:12:12;;;;;;;3.17;1.25;;;21.30;99.90;;;;;;5057395;28;45410;-74
2022/06/09 06:14:41;;;;;;;3.47;1.33;;;21.30;99.90;;;;;;5062373;28;47051;-72
2022/06/09 06:17:08;;;;;;;2.50;1.23;;;21.30;99.90;;;;;;5058736;28;45423;-73
2022/06/09 06:19:35;;;;;;;3.20;1.40;;;21.30;99.90;;;;;;5058392;28;45388;-76
2022/06/09 06:22:02;;;;;;;2.95;1.08;;;21.30;99.90;;;;;;5057278;28;45488;-73
2022/06/09 06:24:29;;;;;;;2.75;1.20;;;21.30;99.90;;;;;;5057364;28;46183;-73
2022/06/09 06:26:56;;;;;;;1.77;1.10;;;21.30;99.90;;;;;;5063720;28;45427;-73
2022/06/09 06:29:25;;;;;;;3.45;1.40;;;21.30;99.90;;;;;;5063059;28;45344;-74
2022/06/09 06:31:54;;;;;;;2.13;1.40;;;21.30;99.90;;;;;;5063585;28;45694;-73
2022/06/09 06:34:21;;;;;;;3.35;1.38;;;21.30;99.90;;;;;;5058324;28;46394;-73
2022/06/09 06:36:48;;;;;;;3.03;1.40;;;21.30;99.90;;;;;;5057108;28;46837;-74
2022/06/09 06:39:15;;;;;;;2.90;1.10;;;21.40;99.90;;;;;;5058953;28;45372;-74
2022/06/09 06:41:42;;;;;;;1.92;1.17;;;21.30;99.90;;;;;;5062652;28;45423;-74
2022/06/09 06:44:09;;;;;;;3.92;1.35;;;21.30;99.90;;;;;;5065534;28;46529;-74
2022/06/09 06:46:36;;;;;;;2.97;1.33;;;21.30;99.90;;;;;;5061318;28;46270;-72
2022/06/09 06:49:05;;;;;;;3.28;1.38;;;21.40;99.90;;;;;;5063502;28;46615;-72
2022/06/09 06:51:32;;;;;;;2.83;1.38;;;21.40;99.90;;;;;;5063189;28;45975;-75
2022/06/09 06:53:58;;;;;;;2.17;1.40;;;21.40;99.90;;;;;;5060522;28;47381;-74
2022/06/09 06:56:25;;;;;;;4.05;1.60;;;21.40;99.90;;;;;;5054582;28;45193;-73
2022/06/09 06:58:52;;;;;;;2.60;1.40;;;21.40;99.90;;;;;;5050052;28;45309;-73
2022/06/09 07:01:19;;;;;;;2.13;1.23;;;21.40;99.90;;;;;;5064145;28;45364;-73
2022/06/09 07:03:46;;;;;;;2.45;1.30;;;21.40;99.90;;;;;;5062101;28;46185;-74
2022/06/09 07:06:14;;;;;;;2.30;1.30;;;21.40;99.90;;;;;;5066568;28;45255;-74
2022/06/09 07:08:41;;;;;;;3.00;1.42;;;21.40;99.90;;;;;;5069150;28;45112;-74
2022/06/09 07:11:09;;;;;;;2.40;1.30;;;21.40;99.90;;;;;;5069452;28;45462;-73
2022/06/09 07:13:37;;;;;;;3.17;1.23;;;21.40;99.90;;;;;;5070115;28;45255;-75
2022/06/09 07:16:05;;;;;;;3.97;1.50;;;21.40;99.90;;;;;;5068371;28;45237;-73
2022/06/09 07:18:32;;;;;;;2.97;1.27;;;21.40;99.90;;;;;;5066741;28;45114;-75
2022/06/09 07:21:00;;;;;;;2.33;1.30;;;21.40;99.90;;;;;;5069241;28;45246;-73
2022/06/09 07:23:30;;;;;;;2.35;1.40;;;21.40;99.90;;;;;;5068392;28;45274;-75
2022/06/09 07:25:57;;;;;;;1.75;1.15;;;21.40;99.90;;;;;;5067879;28;45216;-74
2022/06/09 07:28:24;;;;;;;3.10;1.45;;;21.40;99.90;;;;;;5069424;28;45784;-74
2022/06/09 07:30:55;;;;;;;4.45;1.73;;;21.40;99.90;;;;;;5067604;28;45459;-74
2022/06/09 07:33:23;;;;;;;1.92;1.23;;;21.40;99.90;;;;;;5067987;28;46250;-74
2022/06/09 07:35:51;;;;;;;3.33;1.67;;;21.40;99.90;;;;;;5061928;28;45400;-73
2022/06/09 07:38:19;;;;;;;2.05;1.30;;;21.40;99.90;;;;;;5065943;28;45375;-74
2022/06/09 07:40:47;;;;;;;3.33;1.75;;;21.40;99.90;;;;;;5068592;28;45310;-74
2022/06/09 07:43:14;;;;;;;2.78;1.45;;;21.40;99.90;;;;;;5069302;28;46218;-73
2022/06/09 07:45:41;;;;;;;3.88;1.48;;;21.40;99.90;;;;;;5064296;28;45603;-73
2022/06/09 07:48:09;;;;;;;3.20;1.33;;;21.40;99.90;;;;;;5066460;28;45237;-74
2022/06/09 07:50:36;;;;;;;3.25;1.30;;;21.30;99.90;;;;;;5067727;28;45243;-74
2022/06/09 07:53:03;;;;;;;2.28;1.30;;;21.30;99.90;;;;;;5065201;28;46555;-74
2022/06/09 07:55:30;;;;;;;2.10;1.23;;;21.40;99.90;;;;;;5068229;28;45350;-74
2022/06/09 07:57:58;;;;;;;2.40;1.30;;;21.40;99.90;;;;;;5066982;28;45506;-74
2022/06/09 08:00:26;;;;;;;3.97;1.60;;;21.30;99.90;;;;;;5055783;28;45203;-74
2022/06/09 08:02:54;;;;;;;2.13;1.30;;;21.40;99.90;;;;;;5063987;28;46295;-74
2022/06/09 08:05:23;;;;;;;1.75;1.10;;;21.40;99.90;;;;;;5068100;28;45235;-74
2022/06/09 08:07:50;;;;;;;3.45;1.38;;;21.40;99.90;;;;;;5067975;28;45198;-74
2022/06/09 08:10:20;;;;;;;3.67;1.60;;;21.40;99.90;;;;;;5069680;28;45146;-74
2022/06/09 08:12:48;;;;;;;2.33;1.50;;;21.40;99.90;;;;;;5068509;28;45350;-74
2022/06/09 08:15:17;;;;;;;3.00;1.40;;;21.40;99.90;;;;;;5067913;28;45244;-74
2022/06/09 08:17:44;;;;;;;2.63;1.50;;;21.40;99.90;;;;;;5069233;28;45283;-74
2022/06/09 08:20:15;;;;;;;4.28;1.77;;;21.40;99.90;;;;;;5068580;28;45284;-74
2022/06/09 08:22:43;;;;;;;3.97;1.58;;;21.40;99.90;;;;;;5066715;28;46209;-74
2022/06/09 08:25:14;;;;;;;4.07;1.50;;;21.30;99.90;;;;;;5067714;28;45192;-74
2022/06/09 08:27:40;;;;;;;2.38;1.42;;;21.30;99.90;;;;;;5068790;28;45252;-74
2022/06/09 08:30:09;;;;;;;3.28;1.50;;;21.30;99.90;;;;;;5069398;28;45236;-74
2022/06/09 08:32:38;;;;;;;2.45;1.15;;;21.30;99.90;;;;;;5065216;28;45322;-74
2022/06/09 08:35:09;;;;;;;3.33;1.73;;;21.30;99.90;;;;;;5048846;28;45180;-74
2022/06/09 08:37:36;;;;;;;3.17;1.48;;;21.30;99.90;;;;;;5052518;28;45457;-74
2022/06/09 08:40:05;;;;;;;1.52;1.05;;;21.30;99.90;;;;;;5058013;28;46322;-74
2022/06/09 08:42:38;;;;;;;2.08;1.17;;;21.30;99.90;;;;;;5062729;28;46186;-74
2022/06/09 08:45:09;;;;;;;3.60;1.50;;;21.30;99.90;;;;;;5066323;28;45210;-74
2022/06/09 08:47:40;;;;;;;4.10;1.30;;;21.30;99.90;;;;;;5063140;28;45396;-74
2022/06/09 08:50:15;;;;;;;3.17;1.35;;;21.30;99.90;;;;;;5064033;28;45313;-75
2022/06/09 08:52:49;;;;;;;1.85;1.20;;;21.30;99.90;;;;;;5060142;28;47938;-75
2022/06/09 08:55:26;;;;;;;2.03;1.10;;;21.30;99.90;;;;;;5063162;28;45229;-76
2022/06/09 08:57:59;;;;;;;3.33;1.67;;;21.30;99.90;;;;;;5060581;28;45119;-73
2022/06/09 09:00:33;;;;;;;2.03;1.17;;;21.30;99.90;;;;;;5061661;28;45313;-74
2022/06/09 09:03:05;;;;;;;1.70;1.20;;;21.30;99.90;;;;;;5064088;28;45576;-73
2022/06/09 09:05:38;;;;;;;2.47;1.30;;;21.30;99.90;;;;;;5060628;28;46014;-74
2022/06/09 09:08:07;;;;;;;2.35;1.35;;;21.30;99.90;;;;;;5058435;28;45358;-74
2022/06/09 09:10:47;;;;;;;2.42;1.20;;;21.30;99.90;;;;;;5054193;28;45241;-74
2022/06/09 09:13:40;;;;;;;2.92;1.40;;;21.30;99.90;;;;;;5063564;28;45300;-73
2022/06/09 09:16:16;;;;;;;3.80;1.33;;;21.40;99.90;;;;;;5060681;28;45392;-74
2022/06/09 09:18:53;;;;;;;3.30;1.60;;;21.30;99.90;;;;;;5058082;28;46524;-75
2022/06/09 09:21:45;;;;;;;1.83;1.27;;;21.40;99.90;;;;;;5067431;28;45631;-74
2022/06/09 09:24:23;;;;;;;3.00;1.33;;;21.40;99.90;;;;;;5064549;28;46183;-74
2022/06/09 09:27:02;;;;;;;1.92;1.13;;;21.40;99.90;;;;;;5065158;28;45218;-74
2022/06/09 09:29:34;;;;;;;1.92;1.30;;;21.30;99.90;;;;;;5066716;28;45316;-74
2022/06/09 09:32:05;;;;;;;2.75;1.20;;;21.30;99.90;;;;;;5064895;28;45439;-74
2022/06/09 09:34:37;;;;;;;2.25;1.27;;;21.30;99.90;;;;;;5068081;28;46489;-75
2022/06/09 09:37:17;;;;;;;3.90;1.45;;;21.30;99.90;;;;;;5066268;28;45392;-75
2022/06/09 09:39:47;;;;;;;2.20;1.17;;;21.30;99.90;;;;;;5067068;28;45262;-75
2022/06/09 09:42:21;;;;;;;2.72;1.10;;;21.30;99.90;;;;;;5065718;28;45386;-75
2022/06/09 09:45:06;;;;;;;3.15;1.40;;;21.30;99.90;;;;;;5067603;28;45486;-75
2022/06/09 09:47:41;;;;;;;2.65;1.30;;;21.30;99.90;;;;;;5066354;28;45381;-75
2022/06/09 09:50:25;;;;;;;2.50;1.40;;;21.30;99.90;;;;;;5064269;28;45256;-75
2022/06/09 09:52:59;;;;;;;2.10;1.33;;;21.30;99.90;;;;;;5066248;28;45340;-75
2022/06/09 09:55:30;;;;;;;3.50;1.23;;;21.30;99.90;;;;;;5067545;28;47341;-75
2022/06/09 09:58:17;;;;;;;2.58;1.50;;;21.30;99.90;;;;;;5067811;28;45202;-75
2022/06/09 10:00:45;;;;;;;1.33;1.08;;;21.30;99.90;;;;;;5067118;28;45148;-75
2022/06/09 10:09:05;;;;;;;2.47;1.30;;;21.40;99.90;;;;;;5008328;28;45284;-74
2022/06/09 10:11:54;;;;;;;1.90;1.10;;;21.40;99.90;;;;;;5060024;28;45233;-72
2022/06/09 10:14:46;;;;;;;1.30;1.20;;;21.40;99.90;;;;;;5054440;28;45333;-72
2022/06/09 10:17:27;;;;;;;2.25;1.30;;;21.40;99.90;;;;;;5064115;28;45369;-73
2022/06/09 10:20:01;;;;;;;1.95;1.23;;;21.40;99.90;;;;;;5060374;28;45647;-73
2022/06/09 10:22:32;;;;;;;4.15;1.35;;;21.40;99.90;;;;;;5062001;28;45293;-73
2022/06/09 10:25:03;;;;;;;2.63;1.20;;;21.40;99.90;;;;;;5061234;28;45426;-75
2022/06/09 10:27:35;;;;;;;2.72;1.20;;;21.40;99.90;;;;;;5059192;28;45843;-75
2022/06/09 10:30:07;;;;;;;3.33;1.15;;;21.40;99.90;;;;;;5065883;28;46314;-72
2022/06/09 10:32:40;;;;;;;1.55;1.08;;;21.40;99.90;;;;;;5063390;28;45516;-73
2022/06/09 10:35:12;;;;;;;2.58;1.20;;;21.40;99.90;;;;;;5062305;28;45643;-73
2022/06/09 10:37:46;;;;;;;1.88;1.30;;;21.40;99.90;;;;;;5060197;28;46763;-72
2022/06/09 10:40:18;;;;;;;1.17;0.98;;;21.40;99.90;;;;;;5059598;28;46317;-72
2022/06/09 10:42:52;;;;;;;2.50;1.50;;;21.40;99.90;;;;;;5050684;28;45370;-73
2022/06/09 10:45:24;;;;;;;1.40;0.98;;;21.40;99.90;;;;;;5062624;28;45563;-73
2022/06/09 10:56:37;;;;;;;1.73;0.93;;;21.50;99.90;;;;;;5063746;28;45661;-73
2022/06/09 10:59:09;;;;;;;2.65;1.00;;;21.50;99.90;;;;;;5058179;28;45393;-74
2022/06/09 11:01:37;;;;;;;2.65;1.20;;;21.50;99.90;;;;;;5049871;28;45374;-73
2022/06/09 11:04:11;;;;;;;1.45;0.90;;;21.50;99.90;;;;;;5059606;28;45292;-72
2022/06/09 11:06:55;;;;;;;2.70;1.08;;;21.50;99.90;;;;;;5054839;28;45547;-73
2022/06/09 11:09:33;;;;;;;3.70;1.40;;;21.40;99.90;;;;;;5060371;28;48020;-73
2022/06/09 11:12:10;;;;;;;2.45;1.20;;;21.50;99.90;;;;;;5058629;28;45149;-73
2022/06/09 11:14:46;;;;;;;2.40;1.10;;;21.50;99.90;;;;;;5060927;28;46449;-74
2022/06/09 11:17:35;;;;;;;0.98;0.80;;;21.50;99.90;;;;;;5060338;28;45327;-74
2022/06/09 11:20:12;;;;;;;3.13;1.23;;;21.50;99.90;;;;;;5056342;28;48027;-74
2022/06/09 11:22:45;;;;;;;0.98;0.88;;;21.50;99.90;;;;;;5056539;28;45145;-72
2022/06/09 11:25:27;;;;;;;3.60;1.10;;;21.50;99.90;;;;;;5062973;28;45190;-73
2022/06/09 11:28:04;;;;;;;1.05;0.90;;;21.50;99.90;;;;;;5060295;28;45400;-75
2022/06/09 11:30:43;;;;;;;2.78;1.08;;;21.50;99.90;;;;;;5056721;28;48576;-71
2022/06/09 11:33:20;;;;;;;1.92;1.00;;;21.60;99.90;;;;;;5059624;28;45824;-73
2022/06/09 11:35:54;;;;;;;2.10;1.10;;;21.50;99.90;;;;;;5058670;28;45424;-71
2022/06/09 11:38:33;;;;;;;2.30;1.17;;;21.50;99.90;;;;;;5058799;28;45488;-71
2022/06/09 11:41:18;;;;;;;1.55;1.08;;;21.50;99.90;;;;;;5062340;28;45877;-73
2022/06/09 11:43:56;;;;;;;1.50;1.10;;;21.50;99.90;;;;;;5058309;28;45454;-72
2022/06/09 11:46:25;;;;;;;1.85;1.10;;;21.50;99.90;;;;;;5063264;28;45303;-73
2022/06/09 11:48:55;;;;;;;1.50;1.00;;;21.50;99.90;;;;;;5065924;28;45379;-73
2022/06/09 11:51:25;;;;;;;1.92;0.82;;;21.50;99.90;;;;;;5060943;28;45344;-72
2022/06/09 11:53:54;;;;;;;1.98;1.05;;;21.50;99.90;;;;;;5064070;28;45334;-73
2022/06/09 11:56:44;;;;;;;1.33;0.82;;;21.50;99.90;;;;;;5061672;28;46838;-73
2022/06/09 11:59:21;;;;;;;1.38;1.00;;;21.50;99.90;;;;;;5061292;28;45420;-73
2022/06/09 12:02:10;;;;;;;2.42;1.27;;;21.50;99.90;;;;;;5060734;28;46179;-75
2022/06/09 12:05:15;;;;;;;3.30;1.00;;;21.50;99.90;;;;;;5061411;28;45319;-73
2022/06/09 12:08:11;;;;;;;2.05;1.20;;;21.50;99.90;;;;;;5053780;28;45168;-74
2022/06/09 12:10:56;;;;;;;2.08;1.20;;;21.50;99.90;;;;;;5065848;28;45496;-75
2022/06/09 12:13:28;;;;;;;1.98;1.13;;;21.50;99.90;;;;;;5069412;28;46195;-72
2022/06/09 12:15:59;;;;;;;1.52;1.00;;;21.50;99.90;;;;;;5068432;28;45869;-73
2022/06/09 12:18:38;;;;;;;1.45;0.80;;;21.50;99.90;;;;;;5066384;28;45146;-73
2022/06/09 12:21:11;;;;;;;2.15;1.20;;;21.60;99.90;;;;;;5068802;28;45248;-73
2022/06/09 12:23:40;;;;;;;2.30;1.23;;;21.60;99.90;;;;;;5067865;28;48308;-74
2022/06/09 12:26:45;;;;;;;2.30;1.10;;;21.50;99.90;;;;;;5068911;28;45241;-75
2022/06/09 12:29:43;;;;;;;2.03;1.10;;;21.60;99.90;;;;;;5067765;28;45214;-72
2022/06/09 12:32:42;;;;;;;1.08;0.90;;;21.50;99.90;;;;;;5067174;28;45507;-73
2022/06/09 12:35:31;;;;;;;1.75;0.90;;;21.60;99.90;;;;;;5063725;28;46280;-74
2022/06/09 12:38:04;;;;;;;1.75;0.98;;;21.60;99.90;;;;;;5059139;28;46245;-74
2022/06/09 12:40:40;;;;;;;1.48;0.95;;;21.60;99.90;;;;;;5062332;28;45294;-74
2022/06/09 12:43:19;;;;;;;1.88;0.90;;;21.60;99.90;;;;;;5058694;28;45632;-75
2022/06/09 12:46:01;;;;;;;0.77;0.77;;;21.60;99.90;;;;;;5058897;28;45319;-75
2022/06/09 12:48:33;;;;;;;0.95;0.70;;;21.60;99.90;;;;;;5060549;28;45281;-74
2022/06/09 12:51:02;;;;;;;1.60;0.80;;;21.50;99.90;;;;;;5061385;28;45393;-75
2022/06/09 12:53:35;;;;;;;1.48;0.88;;;21.50;99.90;;;;;;5061275;28;45393;-75
2022/06/09 12:56:06;;;;;;;1.40;0.90;;;21.50;99.90;;;;;;5063051;28;45442;-75
2022/06/09 12:58:38;;;;;;;1.10;0.80;;;21.50;99.90;;;;;;5063831;28;45209;-75
2022/06/09 13:01:12;;;;;;;1.20;0.75;;;21.50;99.90;;;;;;5061611;28;45602;-75
2022/06/09 13:03:43;;;;;;;1.05;0.77;;;21.50;99.90;;;;;;5060645;28;45368;-75
2022/06/09 13:06:20;;;;;;;2.03;0.70;;;21.50;99.90;;;;;;5053731;28;45157;-75
2022/06/09 13:08:49;;;;;;;1.45;0.82;;;21.50;99.90;;;;;;5057540;28;45829;-73
2022/06/09 13:14:05;;;;;;;1.23;0.80;;;21.50;99.90;;;;;;5053783;28;45513;-75
2022/06/09 13:16:39;;;;;;;2.72;0.88;;;21.50;99.90;;;;;;5062093;28;47435;-75
2022/06/09 13:19:07;;;;;;;1.15;0.73;;;21.50;99.90;;;;;;5055337;28;45844;-75
2022/06/09 13:21:37;;;;;;;1.20;0.65;;;21.50;99.90;;;;;;5061171;28;46054;-75
2022/06/09 13:24:07;;;;;;;1.13;0.50;;;21.50;99.90;;;;;;5063395;28;45343;-75
2022/06/09 13:26:40;;;;;;;1.35;0.57;;;21.50;99.90;;;;;;5061585;28;45398;-75
2022/06/09 13:29:10;;;;;;;1.02;0.60;;;21.50;99.90;;;;;;5062696;28;46533;-75
2022/06/09 13:31:43;;;;;;;0.90;0.57;;;21.50;99.90;;;;;;5058840;28;45436;-75
2022/06/09 13:34:23;;;;;;;1.50;0.65;;;21.50;99.90;;;;;;5061235;28;45662;-74